메인 페이지
METAR-TAF:

METAR-TAF

공항 :

킬, 독일

위도: 54-23N, 경도: 010-10E, 고도: 31m

현재 날씨관측

예보는 44분 전, 03:50시(UTC)에 발표되었습니다.
동남동4kt풍과 남남동풍을 오가는
온도 18°C
습도 68%
기압 1008 hPa
시정 10km 이상

METAR: EDHK 210350Z AUTO 11004KT 090V150 9999 // BKN069/// 18/12 Q1008

시각: 06:34 (04:34 UTC)

예보

예보는 1 시간 34분 전, 03:00시(UTC)에 발표되었습니다.
예보 대상 시간: 21일 04시부터 21일 12시까지 (UTC)
동남동7kt
시정 10km 이상
1500m 미만 상공 구름 및 적란운 없음

TAF: EDHK 210300Z 2104/2112 11007KT CAVOK

4,000개 이상의 공항 관측 자료 및 예보 (METAR 및 TAF 보고).

지도상에서 검색 가능한 기상관측소가 노란 점과 빨간 점으로 표시되어 있습니다.

기상관측소 명을 보려면 표시 위로 마우스를 이동하세요.

날씨 관측과 예보를 보려면 클릭하세요.

지도 변경 : 확대하려면 엑스 표시가 있는 녹색 버튼, 축소하려면 빼기 표시가 있는 녹색 버튼, 다음 페이지의 지도를 보려면 녹색 화살표를 클릭하세요.


METAR-TAF: